createdAt,value
2018-10-09T00:00:37.397Z,90.50
2018-10-09T00:03:04.933Z,90.50
2018-10-09T00:05:32.540Z,90.20
2018-10-09T00:08:00.879Z,90.10
2018-10-09T00:10:28.441Z,90.10
2018-10-09T00:12:56.071Z,90.10
2018-10-09T00:15:23.637Z,90.10
2018-10-09T00:17:51.205Z,90.20
2018-10-09T00:20:18.799Z,89.70
2018-10-09T00:22:46.370Z,89.70
2018-10-09T00:25:14.033Z,89.70
2018-10-09T00:27:41.601Z,89.70
2018-10-09T00:30:09.936Z,89.30
2018-10-09T00:32:37.543Z,89.30
2018-10-09T00:35:05.120Z,89.40
2018-10-09T00:37:32.688Z,89.90
2018-10-09T00:40:00.291Z,89.60
2018-10-09T00:42:27.865Z,89.70
2018-10-09T00:44:56.069Z,89.20
2018-10-09T00:47:24.409Z,89.40
2018-10-09T00:49:51.976Z,89.40
2018-10-09T00:52:19.581Z,89.10
2018-10-09T00:54:48.416Z,90.00
2018-10-09T00:57:16.283Z,90.00
2018-10-09T00:59:43.889Z,90.10
2018-10-09T01:02:12.236Z,90.90
2018-10-09T01:04:39.792Z,90.60
2018-10-09T01:07:07.763Z,90.60
2018-10-09T01:09:35.371Z,90.60
2018-10-09T01:12:02.905Z,90.60
2018-10-09T01:14:30.515Z,90.60
2018-10-09T01:16:58.410Z,90.60
2018-10-09T01:19:25.987Z,90.60
2018-10-09T01:21:53.609Z,90.60
2018-10-09T01:24:21.913Z,90.60
2018-10-09T01:26:49.890Z,90.60
2018-10-09T01:29:17.460Z,90.50
2018-10-09T01:31:45.031Z,90.50
2018-10-09T01:34:12.625Z,90.50
2018-10-09T01:36:40.204Z,90.50
2018-10-09T01:39:07.775Z,90.50
2018-10-09T01:41:35.381Z,90.60
2018-10-09T01:44:02.956Z,90.60
2018-10-09T01:46:31.287Z,90.60
2018-10-09T01:48:59.276Z,90.60
2018-10-09T01:51:26.845Z,90.50
2018-10-09T01:53:54.414Z,90.50
2018-10-09T01:56:21.998Z,90.50
2018-10-09T01:58:50.330Z,90.60
2018-10-09T02:01:17.893Z,90.50
2018-10-09T02:03:45.474Z,90.50
2018-10-09T02:06:13.041Z,90.50
2018-10-09T02:08:40.598Z,90.50
2018-10-09T02:11:09.064Z,90.60
2018-10-09T02:13:36.629Z,90.30
2018-10-09T02:16:04.193Z,90.30
2018-10-09T02:18:31.789Z,90.40
2018-10-09T02:21:00.121Z,91.30
2018-10-09T02:23:27.694Z,91.30
2018-10-09T02:25:55.297Z,90.80
2018-10-09T02:28:23.636Z,90.70
2018-10-09T02:30:51.213Z,90.70
2018-10-09T02:33:18.825Z,90.80
2018-10-09T02:35:46.389Z,91.30
2018-10-09T02:38:13.953Z,91.00
2018-10-09T02:40:41.573Z,91.30
2018-10-09T02:43:09.144Z,91.60
2018-10-09T02:45:37.479Z,92.00
2018-10-09T02:48:05.074Z,91.90
2018-10-09T02:50:33.418Z,92.20
2018-10-09T02:53:00.998Z,92.20
2018-10-09T02:55:28.941Z,92.30
2018-10-09T02:57:56.510Z,92.40
2018-10-09T03:00:24.077Z,92.50
2018-10-09T03:02:51.685Z,92.90
2018-10-09T03:05:20.014Z,93.20
2018-10-09T03:07:47.581Z,93.20
2018-10-09T03:10:15.182Z,92.80
2018-10-09T03:12:43.512Z,92.80
2018-10-09T03:15:11.079Z,92.70
2018-10-09T03:17:38.721Z,92.70
2018-10-09T03:20:06.284Z,92.70
2018-10-09T03:22:33.853Z,92.90
2018-10-09T03:25:01.458Z,93.00
2018-10-09T03:27:29.788Z,93.70
2018-10-09T03:29:57.374Z,93.70
2018-10-09T03:32:24.970Z,93.30
2018-10-09T03:34:53.306Z,93.80
2018-10-09T03:37:21.387Z,93.70
2018-10-09T03:39:48.952Z,93.40
2018-10-09T03:42:16.517Z,93.40
2018-10-09T03:44:44.108Z,93.40
2018-10-09T03:47:11.682Z,93.50
2018-10-09T03:49:39.245Z,93.60
2018-10-09T03:52:06.841Z,93.60
2018-10-09T03:54:34.406Z,93.60
2018-10-09T03:57:01.980Z,93.50
2018-10-09T03:59:29.615Z,93.60
2018-10-09T04:01:57.216Z,93.60
2018-10-09T04:04:24.744Z,93.60
2018-10-09T04:06:52.337Z,93.50
2018-10-09T04:09:19.907Z,93.50
2018-10-09T04:11:47.550Z,93.40
2018-10-09T04:14:15.345Z,93.30
2018-10-09T04:16:43.683Z,93.40
2018-10-09T04:19:11.270Z,93.40
2018-10-09T04:21:38.830Z,93.30
2018-10-09T04:24:06.484Z,93.40
2018-10-09T04:26:34.058Z,93.40
2018-10-09T04:29:01.627Z,93.30
2018-10-09T04:31:29.996Z,93.20
2018-10-09T04:33:57.560Z,93.20
2018-10-09T04:36:25.128Z,93.10
2018-10-09T04:38:53.497Z,92.90
2018-10-09T04:41:21.062Z,92.90
2018-10-09T04:43:48.629Z,92.80
2018-10-09T04:46:16.280Z,92.70
2018-10-09T04:48:43.845Z,92.70
2018-10-09T04:51:11.407Z,92.80
2018-10-09T04:53:39.533Z,92.80
2018-10-09T04:56:07.124Z,92.90
2018-10-09T04:58:34.685Z,92.90
2018-10-09T05:01:02.293Z,92.90
2018-10-09T05:03:31.027Z,93.10
2018-10-09T05:05:58.678Z,93.10
2018-10-09T05:08:26.243Z,93.10
2018-10-09T05:10:53.804Z,93.20
2018-10-09T05:13:22.706Z,93.20
2018-10-09T05:15:50.322Z,93.20
2018-10-09T05:18:17.855Z,93.30
2018-10-09T05:20:46.220Z,93.40
2018-10-09T05:23:13.842Z,93.70
2018-10-09T05:25:41.374Z,93.20
2018-10-09T05:28:09.730Z,93.10
2018-10-09T05:30:37.301Z,93.00
2018-10-09T05:33:05.880Z,93.10
2018-10-09T05:35:33.448Z,93.20
2018-10-09T05:38:01.254Z,92.80
2018-10-09T05:40:29.255Z,92.80
2018-10-09T05:42:56.825Z,92.90
2018-10-09T05:45:24.404Z,93.00
2018-10-09T05:47:52.531Z,93.10
2018-10-09T05:50:20.104Z,93.20
2018-10-09T05:52:47.669Z,92.70
2018-10-09T05:55:15.764Z,92.70
2018-10-09T05:57:43.333Z,92.70
2018-10-09T06:00:10.896Z,92.70
2018-10-09T06:02:39.657Z,92.70
2018-10-09T06:05:07.219Z,92.80
2018-10-09T06:07:34.791Z,92.60
2018-10-09T06:10:02.476Z,92.70
2018-10-09T06:12:30.009Z,92.90
2018-10-09T06:14:57.572Z,93.00
2018-10-09T06:17:25.218Z,93.10
2018-10-09T06:19:52.792Z,93.20
2018-10-09T06:22:20.465Z,93.30
2018-10-09T06:24:47.940Z,93.30
2018-10-09T06:27:15.506Z,93.30
2018-10-09T06:29:43.124Z,93.40
2018-10-09T06:32:10.717Z,93.50
2018-10-09T06:34:38.567Z,93.60
2018-10-09T06:37:06.768Z,93.80
2018-10-09T06:39:34.333Z,94.30
2018-10-09T06:42:01.901Z,94.00
2018-10-09T06:44:30.367Z,93.90
2018-10-09T06:46:58.315Z,93.90
2018-10-09T06:49:25.883Z,94.00
2018-10-09T06:51:53.527Z,94.00
2018-10-09T06:54:21.153Z,94.00
2018-10-09T06:56:48.656Z,93.90
2018-10-09T06:59:16.299Z,93.80
2018-10-09T07:01:43.865Z,93.80
2018-10-09T07:04:11.451Z,93.80
2018-10-09T07:06:39.115Z,93.80
2018-10-09T07:09:06.682Z,93.80
2018-10-09T07:11:34.311Z,93.70
2018-10-09T07:14:01.882Z,93.70
2018-10-09T07:16:29.446Z,93.80
2018-10-09T07:18:57.023Z,93.40
2018-10-09T07:21:25.205Z,93.30
2018-10-09T07:23:52.781Z,93.30
2018-10-09T07:26:20.348Z,93.40
2018-10-09T07:28:47.946Z,93.50
2018-10-09T07:31:15.515Z,93.60
2018-10-09T07:33:43.165Z,93.70
2018-10-09T07:36:10.771Z,93.30
2018-10-09T07:38:38.353Z,93.10
2018-10-09T07:41:06.527Z,93.00
2018-10-09T07:43:34.126Z,93.00
2018-10-09T07:46:01.665Z,93.10
2018-10-09T07:48:29.284Z,93.20
2018-10-09T07:50:56.858Z,93.00
2018-10-09T07:53:24.428Z,93.00
2018-10-09T07:55:52.487Z,93.10
2018-10-09T07:58:20.062Z,93.10
2018-10-09T08:00:47.642Z,92.70
2018-10-09T08:03:15.296Z,92.70
2018-10-09T08:05:42.867Z,92.60
2018-10-09T08:08:10.447Z,92.50
2018-10-09T08:10:38.989Z,92.30
2018-10-09T08:13:06.555Z,91.80
2018-10-09T08:15:34.138Z,91.90
2018-10-09T08:18:02.309Z,91.90
2018-10-09T08:20:29.884Z,92.20
2018-10-09T08:22:58.306Z,91.90
2018-10-09T08:25:26.340Z,91.90
2018-10-09T08:27:54.687Z,92.30
2018-10-09T08:30:22.258Z,92.30
2018-10-09T08:32:49.921Z,92.40
2018-10-09T08:35:17.498Z,92.50
2018-10-09T08:37:45.075Z,92.50
2018-10-09T08:40:14.156Z,92.70
2018-10-09T08:42:41.715Z,92.70
2018-10-09T08:45:09.282Z,92.70
2018-10-09T08:47:37.704Z,92.60
2018-10-09T08:50:05.281Z,92.60
2018-10-09T08:52:32.853Z,92.40
2018-10-09T08:55:00.473Z,92.30
2018-10-09T08:57:28.183Z,92.20
2018-10-09T08:59:55.687Z,92.00
2018-10-09T09:02:24.132Z,92.00
2018-10-09T09:04:51.701Z,92.00
2018-10-09T09:07:19.287Z,91.90
2018-10-09T09:09:47.516Z,91.60
2018-10-09T09:12:15.008Z,90.90
2018-10-09T09:14:43.761Z,91.00
2018-10-09T09:17:11.756Z,90.90
2018-10-09T09:19:39.326Z,90.90
2018-10-09T09:22:06.898Z,90.90
2018-10-09T09:24:35.306Z,90.90
2018-10-09T09:27:02.988Z,90.90
2018-10-09T09:29:30.458Z,90.90
2018-10-09T09:31:58.108Z,91.50
2018-10-09T09:34:25.707Z,91.00
2018-10-09T09:36:53.254Z,91.10
2018-10-09T09:39:20.915Z,90.80
2018-10-09T09:41:48.488Z,90.60
2018-10-09T09:44:16.061Z,90.60
2018-10-09T09:46:44.028Z,90.40
2018-10-09T09:49:11.609Z,90.40
2018-10-09T09:51:39.944Z,90.30
2018-10-09T09:54:07.574Z,90.30
2018-10-09T09:56:35.153Z,90.30
2018-10-09T09:59:03.351Z,90.20
2018-10-09T10:01:30.848Z,90.10
2018-10-09T10:03:59.193Z,90.00
2018-10-09T10:06:26.775Z,89.90
2018-10-09T10:08:54.404Z,89.70
2018-10-09T10:11:21.975Z,89.40
2018-10-09T10:13:49.556Z,88.90
2018-10-09T10:16:17.184Z,88.50
2018-10-09T10:18:44.755Z,88.30
2018-10-09T10:21:12.347Z,88.00
2018-10-09T10:23:40.407Z,87.50
2018-10-09T10:26:07.996Z,86.40
2018-10-09T10:28:36.340Z,84.10
2018-10-09T10:31:03.996Z,84.00
2018-10-09T10:33:31.612Z,83.30
2018-10-09T10:35:59.166Z,82.90
2018-10-09T10:38:27.560Z,82.10
2018-10-09T10:40:55.143Z,82.10
2018-10-09T10:43:22.714Z,81.60
2018-10-09T10:45:50.429Z,81.50
2018-10-09T10:48:17.994Z,81.20
2018-10-09T10:50:46.946Z,80.70
2018-10-09T10:53:14.548Z,80.60
2018-10-09T10:55:42.118Z,80.10
2018-10-09T10:58:09.762Z,79.20
2018-10-09T11:00:38.100Z,78.40
2018-10-09T11:03:05.675Z,78.30
2018-10-09T11:05:33.732Z,78.10
2018-10-09T11:08:01.419Z,77.90
2018-10-09T11:10:28.886Z,77.60
2018-10-09T11:12:56.535Z,77.50
2018-10-09T11:15:24.163Z,77.30
2018-10-09T11:17:52.478Z,77.00
2018-10-09T11:20:20.104Z,76.90
2018-10-09T11:22:47.674Z,76.70
2018-10-09T11:25:15.260Z,76.40
2018-10-09T11:27:43.742Z,76.10
2018-10-09T11:30:11.328Z,75.90
2018-10-09T11:32:38.944Z,75.30
2018-10-09T11:35:07.275Z,73.80
2018-10-09T11:37:34.847Z,73.80
2018-10-09T11:40:03.800Z,73.60
2018-10-09T11:42:31.380Z,73.50
2018-10-09T11:44:58.946Z,73.30
2018-10-09T11:47:27.094Z,72.90
2018-10-09T11:49:54.666Z,72.70
2018-10-09T11:52:22.238Z,72.50
2018-10-09T11:54:49.847Z,72.30
2018-10-09T11:57:17.507Z,72.10
2018-10-09T11:59:45.160Z,71.80
2018-10-09T12:02:12.739Z,71.70
2018-10-09T12:04:40.313Z,71.50
2018-10-09T12:07:08.300Z,71.40
2018-10-09T12:09:35.876Z,70.90
2018-10-09T12:12:03.448Z,70.30
2018-10-09T12:14:31.048Z,69.80
2018-10-09T12:16:58.625Z,69.30
2018-10-09T12:19:26.278Z,68.70
2018-10-09T12:21:53.882Z,68.30
2018-10-09T12:24:21.454Z,67.80
2018-10-09T12:26:49.569Z,67.30
2018-10-09T12:29:17.140Z,67.00
2018-10-09T12:31:44.711Z,66.80
2018-10-09T12:34:12.335Z,66.80
2018-10-09T12:36:40.675Z,66.80
2018-10-09T12:39:08.253Z,66.70
2018-10-09T12:41:36.359Z,66.70
2018-10-09T12:44:03.967Z,66.30
2018-10-09T12:46:31.516Z,66.10
2018-10-09T12:48:59.134Z,65.80
2018-10-09T12:51:27.482Z,65.90
2018-10-09T12:53:55.115Z,65.80
2018-10-09T12:56:22.692Z,65.50
2018-10-09T12:58:50.322Z,65.00
2018-10-09T13:01:17.873Z,64.50
2018-10-09T13:03:45.448Z,64.20
2018-10-09T13:06:13.078Z,63.30
2018-10-09T13:08:41.429Z,62.90
2018-10-09T13:11:09.015Z,62.80
2018-10-09T13:13:37.415Z,62.40
2018-10-09T13:16:05.779Z,61.90
2018-10-09T13:18:34.257Z,61.10
2018-10-09T13:21:01.973Z,61.00
2018-10-09T13:23:29.399Z,59.90
2018-10-09T13:25:57.724Z,59.60
2018-10-09T13:28:25.290Z,58.90
2018-10-09T13:30:52.886Z,57.90
2018-10-09T13:33:21.023Z,56.90
2018-10-09T13:35:48.594Z,55.70
2018-10-09T13:38:16.262Z,55.70
2018-10-09T13:40:44.569Z,55.40
2018-10-09T13:43:12.908Z,55.00
2018-10-09T13:45:40.472Z,54.90
2018-10-09T13:48:08.071Z,54.90
2018-10-09T13:50:36.450Z,54.50
2018-10-09T13:53:04.891Z,54.50
2018-10-09T13:55:32.463Z,54.40
2018-10-09T13:58:00.036Z,54.50
2018-10-09T14:00:27.706Z,55.00
2018-10-09T14:02:55.269Z,55.20
2018-10-09T14:05:22.811Z,55.10
2018-10-09T14:07:50.438Z,55.10
2018-10-09T14:10:18.062Z,54.70
2018-10-09T14:12:45.589Z,54.40
2018-10-09T14:15:13.646Z,54.50
2018-10-09T14:17:41.124Z,54.60
2018-10-09T14:20:08.691Z,54.70
2018-10-09T14:22:36.365Z,55.00
2018-10-09T14:25:03.860Z,55.00
2018-10-09T14:27:31.987Z,54.70
2018-10-09T14:29:59.556Z,54.60
2018-10-09T14:32:27.130Z,54.50
2018-10-09T14:34:55.561Z,54.20
2018-10-09T14:37:23.847Z,54.10
2018-10-09T14:39:51.426Z,54.00
2018-10-09T14:42:19.044Z,53.90
2018-10-09T14:44:46.623Z,54.10
2018-10-09T14:47:14.204Z,53.60
2018-10-09T14:49:41.831Z,53.50
2018-10-09T14:52:09.400Z,53.60
2018-10-09T14:54:36.965Z,52.30
2018-10-09T14:57:04.580Z,52.20
2018-10-09T14:59:32.926Z,52.70
2018-10-09T15:02:00.499Z,52.70
2018-10-09T15:04:28.123Z,52.80
2018-10-09T15:06:56.124Z,52.70
2018-10-09T15:09:23.692Z,52.90
2018-10-09T15:11:51.342Z,52.90
2018-10-09T15:14:18.915Z,53.20
2018-10-09T15:16:46.545Z,53.30
2018-10-09T15:19:14.584Z,53.40
2018-10-09T15:21:42.926Z,52.50
2018-10-09T15:24:10.509Z,52.50
2018-10-09T15:26:38.807Z,52.70
2018-10-09T15:29:06.438Z,53.00
2018-10-09T15:31:33.965Z,53.30
2018-10-09T15:34:01.940Z,53.70
2018-10-09T15:36:29.510Z,53.90
2018-10-09T15:38:57.085Z,53.80
2018-10-09T15:41:24.754Z,53.80
2018-10-09T15:43:52.315Z,54.00
2018-10-09T15:46:19.885Z,54.30
2018-10-09T15:48:48.420Z,54.50
2018-10-09T15:51:15.994Z,54.70
2018-10-09T15:53:43.577Z,54.80
2018-10-09T15:56:11.171Z,54.90
2018-10-09T15:58:39.507Z,55.10
2018-10-09T16:01:07.127Z,55.10
2018-10-09T16:03:35.457Z,55.50
2018-10-09T16:06:03.023Z,55.40
2018-10-09T16:08:30.635Z,55.70
2018-10-09T16:10:58.217Z,56.00
2018-10-09T16:13:25.866Z,56.40
2018-10-09T16:15:53.443Z,56.70
2018-10-09T16:18:21.015Z,57.10
2018-10-09T16:20:48.645Z,57.50
2018-10-09T16:23:16.975Z,58.40
2018-10-09T16:25:44.562Z,58.40
2018-10-09T16:28:12.986Z,59.20
2018-10-09T16:30:40.575Z,59.20
2018-10-09T16:33:08.146Z,59.10
2018-10-09T16:35:36.702Z,59.50
2018-10-09T16:38:04.261Z,60.00
2018-10-09T16:40:31.854Z,60.50
2018-10-09T16:42:59.447Z,61.20
2018-10-09T16:45:27.789Z,62.50
2018-10-09T16:47:55.429Z,62.50
2018-10-09T16:50:22.997Z,63.80
2018-10-09T16:52:50.726Z,63.70
2018-10-09T16:55:18.550Z,64.40
2018-10-09T16:57:46.124Z,65.00
2018-10-09T17:00:13.722Z,65.70
2018-10-09T17:02:41.945Z,66.30
2018-10-09T17:05:09.545Z,66.80
2018-10-09T17:07:37.883Z,67.90
2018-10-09T17:10:05.716Z,67.80
2018-10-09T17:12:33.301Z,68.10
2018-10-09T17:15:01.637Z,68.90
2018-10-09T17:17:29.966Z,68.80
2018-10-09T17:19:57.541Z,68.70
2018-10-09T17:22:25.735Z,69.10
2018-10-09T17:24:53.273Z,69.60
2018-10-09T17:27:20.861Z,70.60
2018-10-09T17:29:49.255Z,69.50
2018-10-09T17:32:16.828Z,69.40
2018-10-09T17:34:44.634Z,69.10
2018-10-09T17:37:13.121Z,69.00
2018-10-09T17:39:40.694Z,70.00
2018-10-09T17:42:08.326Z,70.70
2018-10-09T17:44:35.878Z,71.30
2018-10-09T17:47:03.513Z,71.90
2018-10-09T17:49:31.546Z,72.60
2018-10-09T17:51:59.129Z,73.10
2018-10-09T17:54:27.493Z,75.30
2018-10-09T17:56:55.599Z,75.30
2018-10-09T17:59:23.181Z,74.10
2018-10-09T18:01:50.761Z,74.40
2018-10-09T18:04:19.309Z,74.60
2018-10-09T18:06:47.656Z,75.40
2018-10-09T18:09:15.252Z,75.40
2018-10-09T18:11:42.907Z,75.70
2018-10-09T18:14:11.248Z,77.10
2018-10-09T18:16:38.827Z,77.00
2018-10-09T18:19:06.934Z,77.40
2018-10-09T18:21:34.509Z,77.50
2018-10-09T18:24:02.104Z,77.60
2018-10-09T18:26:29.795Z,78.00
2018-10-09T18:28:58.549Z,78.60
2018-10-09T18:31:27.030Z,78.80
2018-10-09T18:33:54.614Z,79.10
2018-10-09T18:36:22.191Z,79.30
2018-10-09T18:38:50.585Z,80.00
2018-10-09T18:41:18.374Z,80.00
2018-10-09T18:43:45.825Z,79.10
2018-10-09T18:46:13.435Z,79.00
2018-10-09T18:48:41.020Z,79.40
2018-10-09T18:51:09.005Z,79.70
2018-10-09T18:53:37.347Z,80.80
2018-10-09T18:56:04.923Z,80.80
2018-10-09T18:58:32.556Z,80.50
2018-10-09T19:01:00.132Z,80.40
2018-10-09T19:03:27.706Z,80.60
2018-10-09T19:05:55.325Z,80.80
2018-10-09T19:08:22.894Z,81.40
2018-10-09T19:10:50.659Z,81.80
2018-10-09T19:13:18.236Z,82.10
2018-10-09T19:15:45.764Z,82.50
2018-10-09T19:18:13.802Z,82.70
2018-10-09T19:20:42.183Z,83.00
2018-10-09T19:23:09.750Z,83.00
2018-10-09T19:25:38.117Z,83.20
2018-10-09T19:28:05.688Z,83.10
2018-10-09T19:30:34.105Z,83.70
2018-10-09T19:33:01.688Z,83.60
2018-10-09T19:35:29.269Z,83.90
2018-10-09T19:37:56.893Z,84.20
2018-10-09T19:40:24.461Z,84.80
2018-10-09T19:42:52.038Z,84.80
2018-10-09T19:45:19.673Z,84.60
2018-10-09T19:47:47.251Z,85.10
2018-10-09T19:50:14.835Z,84.30
2018-10-09T19:52:42.470Z,84.20
2018-10-09T19:55:10.048Z,84.10
2018-10-09T19:57:37.642Z,84.40
2018-10-09T20:00:05.298Z,84.80
2018-10-09T20:02:32.934Z,84.80
2018-10-09T20:05:00.533Z,85.00
2018-10-09T20:07:28.685Z,85.10
2018-10-09T20:09:56.263Z,85.40
2018-10-09T20:12:23.845Z,85.50
2018-10-09T20:14:51.463Z,85.80
2018-10-09T20:17:19.038Z,85.80
2018-10-09T20:19:47.502Z,86.00
2018-10-09T20:22:16.508Z,86.10
2018-10-09T20:24:44.233Z,86.60
2018-10-09T20:27:11.665Z,85.90
2018-10-09T20:29:40.073Z,85.80
2018-10-09T20:32:07.651Z,85.70
2018-10-09T20:34:35.232Z,85.80
2018-10-09T20:37:04.007Z,85.80
2018-10-09T20:39:31.601Z,86.10
2018-10-09T20:41:59.257Z,86.50
2018-10-09T20:44:27.572Z,87.40
2018-10-09T20:46:55.152Z,87.30
2018-10-09T20:49:22.723Z,87.20
2018-10-09T20:51:50.931Z,87.10
2018-10-09T20:54:18.524Z,87.10
2018-10-09T20:56:46.867Z,89.20
2018-10-09T20:59:14.494Z,89.10
2018-10-09T21:01:42.075Z,88.30
2018-10-09T21:04:09.657Z,88.60
2018-10-09T21:06:37.287Z,89.00
2018-10-09T21:09:04.871Z,89.40
2018-10-09T21:11:32.443Z,89.70
2018-10-09T21:14:00.091Z,89.30
2018-10-09T21:16:27.666Z,88.90
2018-10-09T21:18:55.236Z,88.90
2018-10-09T21:21:22.839Z,88.90
2018-10-09T21:23:50.419Z,88.80
2018-10-09T21:26:18.505Z,88.80
2018-10-09T21:28:46.087Z,88.70
2018-10-09T21:31:13.689Z,88.80
2018-10-09T21:33:42.027Z,88.80
2018-10-09T21:36:09.604Z,88.90
2018-10-09T21:38:37.188Z,89.20
2018-10-09T21:41:04.845Z,89.20
2018-10-09T21:43:33.193Z,88.20
2018-10-09T21:46:00.761Z,88.10
2018-10-09T21:48:28.419Z,88.10
2018-10-09T21:50:56.000Z,88.10
2018-10-09T21:53:23.570Z,88.50
2018-10-09T21:55:52.020Z,87.70
2018-10-09T21:58:19.596Z,87.60
2018-10-09T22:00:47.172Z,87.60
2018-10-09T22:03:14.798Z,87.80
2018-10-09T22:05:42.390Z,88.10
2018-10-09T22:08:16.411Z,88.80
2018-10-09T22:10:44.553Z,88.80
2018-10-09T22:13:12.123Z,89.00
2018-10-09T22:15:39.695Z,89.10
2018-10-09T22:18:08.074Z,89.80
2018-10-09T22:20:35.645Z,89.20
2018-10-09T22:23:05.015Z,89.20
2018-10-09T22:25:32.597Z,89.10
2018-10-09T22:28:00.172Z,89.10
2018-10-09T22:30:27.807Z,89.10
2018-10-09T22:32:55.373Z,89.20
2018-10-09T22:35:22.945Z,89.20
2018-10-09T22:37:50.569Z,89.20
2018-10-09T22:40:18.459Z,89.30
2018-10-09T22:42:46.028Z,89.40
2018-10-09T22:45:13.653Z,89.50
2018-10-09T22:47:41.234Z,89.40
2018-10-09T22:50:08.804Z,89.40
2018-10-09T22:52:36.788Z,89.60
2018-10-09T22:55:04.379Z,90.00
2018-10-09T22:57:33.027Z,90.30
2018-10-09T23:00:00.624Z,90.30
2018-10-09T23:02:28.980Z,90.50
2018-10-09T23:04:57.172Z,90.40
2018-10-09T23:07:24.992Z,90.50
2018-10-09T23:09:52.570Z,90.50
2018-10-09T23:12:20.236Z,90.50
2018-10-09T23:14:47.810Z,90.50
2018-10-09T23:17:15.380Z,90.30
2018-10-09T23:19:42.980Z,89.90
2018-10-09T23:22:10.554Z,89.60
2018-10-09T23:24:38.160Z,89.60
2018-10-09T23:27:05.746Z,89.70
2018-10-09T23:29:33.321Z,90.00
2018-10-09T23:32:00.954Z,90.00
2018-10-09T23:34:29.301Z,90.40
2018-10-09T23:36:56.880Z,90.40
2018-10-09T23:39:24.487Z,90.70
2018-10-09T23:41:52.062Z,90.90
2018-10-09T23:44:19.640Z,90.80
2018-10-09T23:46:47.249Z,90.30
2018-10-09T23:49:15.602Z,90.20
2018-10-09T23:51:43.168Z,90.10
2018-10-09T23:54:10.798Z,90.10
2018-10-09T23:56:38.388Z,90.10
2018-10-09T23:59:05.958Z,90.10
